sensor_id;sensor_type;location;lat;lon;timestamp;P1;durP1;ratioP1;P2;durP2;ratioP2
50092;SDS011;35974;47.752;10.290;2022-07-18T00:00:07;4.63;;;2.70;;
50092;SDS011;35974;47.752;10.290;2022-07-18T00:02:34;3.28;;;2.83;;
50092;SDS011;35974;47.752;10.290;2022-07-18T00:05:02;5.03;;;3.00;;
50092;SDS011;35974;47.752;10.290;2022-07-18T00:07:29;4.72;;;3.22;;
50092;SDS011;35974;47.752;10.290;2022-07-18T00:09:56;3.50;;;2.80;;
50092;SDS011;35974;47.752;10.290;2022-07-18T00:12:22;3.50;;;2.80;;
50092;SDS011;35974;47.752;10.290;2022-07-18T00:14:49;4.22;;;3.30;;
50092;SDS011;35974;47.752;10.290;2022-07-18T00:17:15;4.13;;;3.28;;
50092;SDS011;35974;47.752;10.290;2022-07-18T00:19:42;5.18;;;3.13;;
50092;SDS011;35974;47.752;10.290;2022-07-18T00:22:08;5.57;;;2.63;;
50092;SDS011;35974;47.752;10.290;2022-07-18T00:24:35;3.45;;;2.85;;
50092;SDS011;35974;47.752;10.290;2022-07-18T00:27:04;3.47;;;2.83;;
50092;SDS011;35974;47.752;10.290;2022-07-18T00:29:33;3.72;;;2.80;;
50092;SDS011;35974;47.752;10.290;2022-07-18T00:32:04;4.03;;;3.10;;
50092;SDS011;35974;47.752;10.290;2022-07-18T00:34:32;5.70;;;3.17;;
50092;SDS011;35974;47.752;10.290;2022-07-18T00:36:59;3.50;;;2.88;;
50092;SDS011;35974;47.752;10.290;2022-07-18T00:39:25;3.05;;;2.75;;
50092;SDS011;35974;47.752;10.290;2022-07-18T00:41:52;3.85;;;2.78;;
50092;SDS011;35974;47.752;10.290;2022-07-18T00:44:19;4.20;;;2.75;;
50092;SDS011;35974;47.752;10.290;2022-07-18T00:46:54;3.75;;;2.70;;
50092;SDS011;35974;47.752;10.290;2022-07-18T00:49:22;3.60;;;3.00;;
50092;SDS011;35974;47.752;10.290;2022-07-18T00:51:49;3.95;;;2.90;;
50092;SDS011;35974;47.752;10.290;2022-07-18T00:54:16;3.25;;;2.95;;
50092;SDS011;35974;47.752;10.290;2022-07-18T00:56:43;5.25;;;2.78;;
50092;SDS011;35974;47.752;10.290;2022-07-18T00:59:11;3.63;;;2.90;;
50092;SDS011;35974;47.752;10.290;2022-07-18T01:01:38;3.80;;;2.95;;
50092;SDS011;35974;47.752;10.290;2022-07-18T01:04:19;3.97;;;3.00;;
50092;SDS011;35974;47.752;10.290;2022-07-18T01:06:48;3.13;;;2.63;;
50092;SDS011;35974;47.752;10.290;2022-07-18T01:09:16;3.53;;;3.00;;
50092;SDS011;35974;47.752;10.290;2022-07-18T01:11:44;4.20;;;2.80;;
50092;SDS011;35974;47.752;10.290;2022-07-18T01:14:11;4.40;;;2.95;;
50092;SDS011;35974;47.752;10.290;2022-07-18T01:16:39;3.65;;;3.03;;
50092;SDS011;35974;47.752;10.290;2022-07-18T01:19:05;4.85;;;3.20;;
50092;SDS011;35974;47.752;10.290;2022-07-18T01:21:32;7.53;;;3.65;;
50092;SDS011;35974;47.752;10.290;2022-07-18T01:23:59;3.60;;;3.15;;
50092;SDS011;35974;47.752;10.290;2022-07-18T01:26:25;4.70;;;3.45;;
50092;SDS011;35974;47.752;10.290;2022-07-18T01:28:53;3.72;;;3.20;;
50092;SDS011;35974;47.752;10.290;2022-07-18T01:31:19;3.63;;;3.10;;
50092;SDS011;35974;47.752;10.290;2022-07-18T01:33:46;3.45;;;3.15;;
50092;SDS011;35974;47.752;10.290;2022-07-18T01:36:12;3.90;;;3.17;;
50092;SDS011;35974;47.752;10.290;2022-07-18T01:38:39;4.15;;;3.47;;
50092;SDS011;35974;47.752;10.290;2022-07-18T01:41:06;5.72;;;3.30;;
50092;SDS011;35974;47.752;10.290;2022-07-18T01:43:32;4.22;;;3.38;;
50092;SDS011;35974;47.752;10.290;2022-07-18T01:46:00;5.10;;;3.13;;
50092;SDS011;35974;47.752;10.290;2022-07-18T01:48:27;7.22;;;3.40;;
50092;SDS011;35974;47.752;10.290;2022-07-18T01:50:54;4.65;;;3.58;;
50092;SDS011;35974;47.752;10.290;2022-07-18T01:53:20;4.45;;;3.40;;
50092;SDS011;35974;47.752;10.290;2022-07-18T01:55:47;3.28;;;2.97;;
50092;SDS011;35974;47.752;10.290;2022-07-18T01:58:13;4.55;;;3.50;;
50092;SDS011;35974;47.752;10.290;2022-07-18T02:00:40;4.55;;;3.67;;
50092;SDS011;35974;47.752;10.290;2022-07-18T02:03:06;3.70;;;3.40;;
50092;SDS011;35974;47.752;10.290;2022-07-18T02:05:33;5.88;;;3.53;;
50092;SDS011;35974;47.752;10.290;2022-07-18T02:08:00;4.15;;;3.53;;
50092;SDS011;35974;47.752;10.290;2022-07-18T02:10:26;3.75;;;3.10;;
50092;SDS011;35974;47.752;10.290;2022-07-18T02:12:56;4.05;;;3.42;;
50092;SDS011;35974;47.752;10.290;2022-07-18T02:15:22;3.67;;;3.33;;
50092;SDS011;35974;47.752;10.290;2022-07-18T02:17:50;5.82;;;3.40;;
50092;SDS011;35974;47.752;10.290;2022-07-18T02:20:16;7.38;;;3.47;;
50092;SDS011;35974;47.752;10.290;2022-07-18T02:22:43;5.22;;;4.18;;
50092;SDS011;35974;47.752;10.290;2022-07-18T02:25:10;4.35;;;3.80;;
50092;SDS011;35974;47.752;10.290;2022-07-18T02:27:37;4.30;;;3.30;;
50092;SDS011;35974;47.752;10.290;2022-07-18T02:30:04;5.63;;;3.53;;
50092;SDS011;35974;47.752;10.290;2022-07-18T02:32:32;6.00;;;3.60;;
50092;SDS011;35974;47.752;10.290;2022-07-18T02:34:59;5.60;;;3.50;;
50092;SDS011;35974;47.752;10.290;2022-07-18T02:37:25;5.82;;;3.70;;
50092;SDS011;35974;47.752;10.290;2022-07-18T02:39:52;5.25;;;3.83;;
50092;SDS011;35974;47.752;10.290;2022-07-18T02:42:18;3.55;;;3.25;;
50092;SDS011;35974;47.752;10.290;2022-07-18T02:44:45;5.53;;;3.70;;
50092;SDS011;35974;47.752;10.290;2022-07-18T02:47:12;4.30;;;3.72;;
50092;SDS011;35974;47.752;10.290;2022-07-18T02:49:38;4.80;;;3.60;;
50092;SDS011;35974;47.752;10.290;2022-07-18T02:52:06;5.35;;;3.65;;
50092;SDS011;35974;47.752;10.290;2022-07-18T02:54:35;5.72;;;3.85;;
50092;SDS011;35974;47.752;10.290;2022-07-18T02:57:03;5.07;;;3.75;;
50092;SDS011;35974;47.752;10.290;2022-07-18T02:59:30;4.82;;;4.00;;
50092;SDS011;35974;47.752;10.290;2022-07-18T03:01:56;6.07;;;3.90;;
50092;SDS011;35974;47.752;10.290;2022-07-18T03:04:23;3.85;;;3.40;;
50092;SDS011;35974;47.752;10.290;2022-07-18T03:06:50;3.75;;;3.40;;
50092;SDS011;35974;47.752;10.290;2022-07-18T03:09:18;3.83;;;3.42;;
50092;SDS011;35974;47.752;10.290;2022-07-18T03:11:45;4.25;;;3.85;;
50092;SDS011;35974;47.752;10.290;2022-07-18T03:14:11;5.43;;;3.72;;
50092;SDS011;35974;47.752;10.290;2022-07-18T03:16:38;8.25;;;4.32;;
50092;SDS011;35974;47.752;10.290;2022-07-18T03:19:04;10.20;;;4.38;;
50092;SDS011;35974;47.752;10.290;2022-07-18T03:21:31;9.00;;;4.10;;
50092;SDS011;35974;47.752;10.290;2022-07-18T03:23:58;4.90;;;3.80;;
50092;SDS011;35974;47.752;10.290;2022-07-18T03:26:24;5.07;;;4.13;;
50092;SDS011;35974;47.752;10.290;2022-07-18T03:28:50;6.28;;;4.15;;
50092;SDS011;35974;47.752;10.290;2022-07-18T03:31:17;6.18;;;4.45;;
50092;SDS011;35974;47.752;10.290;2022-07-18T03:33:43;5.22;;;3.97;;
50092;SDS011;35974;47.752;10.290;2022-07-18T03:36:10;6.30;;;4.60;;
50092;SDS011;35974;47.752;10.290;2022-07-18T03:38:36;5.85;;;4.35;;
50092;SDS011;35974;47.752;10.290;2022-07-18T03:41:04;4.72;;;4.18;;
50092;SDS011;35974;47.752;10.290;2022-07-18T03:43:30;5.65;;;4.30;;
50092;SDS011;35974;47.752;10.290;2022-07-18T03:45:57;6.10;;;4.55;;
50092;SDS011;35974;47.752;10.290;2022-07-18T03:48:24;5.88;;;4.53;;
50092;SDS011;35974;47.752;10.290;2022-07-18T03:50:51;6.18;;;4.20;;
50092;SDS011;35974;47.752;10.290;2022-07-18T03:53:17;5.47;;;4.25;;
50092;SDS011;35974;47.752;10.290;2022-07-18T03:55:44;4.95;;;3.95;;
50092;SDS011;35974;47.752;10.290;2022-07-18T03:58:10;5.05;;;4.05;;
50092;SDS011;35974;47.752;10.290;2022-07-18T04:00:37;5.85;;;3.83;;
50092;SDS011;35974;47.752;10.290;2022-07-18T04:03:03;4.45;;;4.03;;
50092;SDS011;35974;47.752;10.290;2022-07-18T04:05:31;10.52;;;4.28;;
50092;SDS011;35974;47.752;10.290;2022-07-18T04:08:03;5.05;;;4.30;;
50092;SDS011;35974;47.752;10.290;2022-07-18T04:10:30;6.20;;;4.32;;
50092;SDS011;35974;47.752;10.290;2022-07-18T04:12:58;6.38;;;4.32;;
50092;SDS011;35974;47.752;10.290;2022-07-18T04:15:27;6.82;;;4.78;;
50092;SDS011;35974;47.752;10.290;2022-07-18T04:17:56;5.53;;;4.38;;
50092;SDS011;35974;47.752;10.290;2022-07-18T04:20:22;6.63;;;4.50;;
50092;SDS011;35974;47.752;10.290;2022-07-18T04:25:24;5.07;;;4.30;;
50092;SDS011;35974;47.752;10.290;2022-07-18T04:27:53;8.10;;;4.90;;
50092;SDS011;35974;47.752;10.290;2022-07-18T04:30:21;6.97;;;4.20;;
50092;SDS011;35974;47.752;10.290;2022-07-18T04:32:49;6.90;;;4.57;;
50092;SDS011;35974;47.752;10.290;2022-07-18T04:35:19;5.82;;;4.97;;
50092;SDS011;35974;47.752;10.290;2022-07-18T04:37:47;6.80;;;4.82;;
50092;SDS011;35974;47.752;10.290;2022-07-18T04:40:13;7.18;;;4.75;;
50092;SDS011;35974;47.752;10.290;2022-07-18T04:42:41;6.47;;;4.90;;
50092;SDS011;35974;47.752;10.290;2022-07-18T04:45:08;6.45;;;5.10;;
50092;SDS011;35974;47.752;10.290;2022-07-18T04:47:37;10.23;;;4.90;;
50092;SDS011;35974;47.752;10.290;2022-07-18T04:50:04;6.97;;;5.45;;
50092;SDS011;35974;47.752;10.290;2022-07-18T04:52:38;6.53;;;5.40;;
50092;SDS011;35974;47.752;10.290;2022-07-18T04:55:05;9.38;;;5.63;;
50092;SDS011;35974;47.752;10.290;2022-07-18T04:57:33;9.88;;;6.20;;
50092;SDS011;35974;47.752;10.290;2022-07-18T05:00:04;8.30;;;6.18;;
50092;SDS011;35974;47.752;10.290;2022-07-18T05:02:33;9.05;;;5.63;;
50092;SDS011;35974;47.752;10.290;2022-07-18T05:04:59;10.32;;;6.10;;
50092;SDS011;35974;47.752;10.290;2022-07-18T05:07:28;9.02;;;5.90;;
50092;SDS011;35974;47.752;10.290;2022-07-18T05:09:55;8.13;;;6.45;;
50092;SDS011;35974;47.752;10.290;2022-07-18T05:12:21;8.45;;;6.82;;
50092;SDS011;35974;47.752;10.290;2022-07-18T05:14:51;12.57;;;6.40;;
50092;SDS011;35974;47.752;10.290;2022-07-18T05:17:25;9.10;;;6.30;;
50092;SDS011;35974;47.752;10.290;2022-07-18T05:19:52;7.22;;;5.15;;
50092;SDS011;35974;47.752;10.290;2022-07-18T05:22:18;7.93;;;6.13;;
50092;SDS011;35974;47.752;10.290;2022-07-18T05:24:45;8.23;;;6.38;;
50092;SDS011;35974;47.752;10.290;2022-07-18T05:27:11;10.85;;;5.68;;
50092;SDS011;35974;47.752;10.290;2022-07-18T05:29:37;9.52;;;5.93;;
50092;SDS011;35974;47.752;10.290;2022-07-18T05:32:04;6.88;;;5.97;;
50092;SDS011;35974;47.752;10.290;2022-07-18T05:34:31;7.13;;;5.70;;
50092;SDS011;35974;47.752;10.290;2022-07-18T05:36:57;9.00;;;5.53;;
50092;SDS011;35974;47.752;10.290;2022-07-18T05:39:25;7.93;;;5.70;;
50092;SDS011;35974;47.752;10.290;2022-07-18T05:41:52;8.55;;;5.40;;
50092;SDS011;35974;47.752;10.290;2022-07-18T05:44:19;7.60;;;5.57;;
50092;SDS011;35974;47.752;10.290;2022-07-18T05:46:46;8.35;;;5.57;;
50092;SDS011;35974;47.752;10.290;2022-07-18T05:49:14;9.57;;;5.40;;
50092;SDS011;35974;47.752;10.290;2022-07-18T05:51:41;8.27;;;5.47;;
50092;SDS011;35974;47.752;10.290;2022-07-18T05:54:08;8.85;;;6.00;;
50092;SDS011;35974;47.752;10.290;2022-07-18T05:56:34;10.15;;;5.80;;
50092;SDS011;35974;47.752;10.290;2022-07-18T05:59:02;10.68;;;5.50;;
50092;SDS011;35974;47.752;10.290;2022-07-18T06:01:29;8.02;;;5.03;;
50092;SDS011;35974;47.752;10.290;2022-07-18T06:03:55;8.35;;;5.07;;
50092;SDS011;35974;47.752;10.290;2022-07-18T06:06:22;7.63;;;5.50;;
50092;SDS011;35974;47.752;10.290;2022-07-18T06:08:50;11.02;;;5.60;;
50092;SDS011;35974;47.752;10.290;2022-07-18T06:11:16;9.68;;;5.30;;
50092;SDS011;35974;47.752;10.290;2022-07-18T06:13:43;9.85;;;5.50;;
50092;SDS011;35974;47.752;10.290;2022-07-18T06:16:09;5.53;;;4.57;;
50092;SDS011;35974;47.752;10.290;2022-07-18T06:18:36;8.65;;;5.18;;
50092;SDS011;35974;47.752;10.290;2022-07-18T06:21:03;5.57;;;4.38;;
50092;SDS011;35974;47.752;10.290;2022-07-18T06:23:30;8.10;;;4.97;;
50092;SDS011;35974;47.752;10.290;2022-07-18T06:25:57;6.80;;;4.55;;
50092;SDS011;35974;47.752;10.290;2022-07-18T06:28:25;7.35;;;5.00;;
50092;SDS011;35974;47.752;10.290;2022-07-18T06:30:52;7.20;;;4.65;;
50092;SDS011;35974;47.752;10.290;2022-07-18T06:33:19;10.25;;;4.90;;
50092;SDS011;35974;47.752;10.290;2022-07-18T06:35:46;9.23;;;4.88;;
50092;SDS011;35974;47.752;10.290;2022-07-18T06:38:13;6.38;;;4.30;;
50092;SDS011;35974;47.752;10.290;2022-07-18T06:40:41;5.65;;;4.40;;
50092;SDS011;35974;47.752;10.290;2022-07-18T06:43:08;7.88;;;4.50;;
50092;SDS011;35974;47.752;10.290;2022-07-18T06:45:35;9.20;;;4.63;;
50092;SDS011;35974;47.752;10.290;2022-07-18T06:48:02;5.15;;;4.18;;
50092;SDS011;35974;47.752;10.290;2022-07-18T06:50:29;4.93;;;4.35;;
50092;SDS011;35974;47.752;10.290;2022-07-18T06:52:55;7.55;;;5.13;;
50092;SDS011;35974;47.752;10.290;2022-07-18T06:55:22;7.68;;;4.30;;
50092;SDS011;35974;47.752;10.290;2022-07-18T06:57:48;10.43;;;4.57;;
50092;SDS011;35974;47.752;10.290;2022-07-18T07:00:15;5.88;;;4.13;;
50092;SDS011;35974;47.752;10.290;2022-07-18T07:02:45;7.15;;;3.88;;
50092;SDS011;35974;47.752;10.290;2022-07-18T07:05:14;8.45;;;4.40;;
50092;SDS011;35974;47.752;10.290;2022-07-18T07:07:42;6.20;;;4.03;;
50092;SDS011;35974;47.752;10.290;2022-07-18T07:10:14;7.50;;;3.75;;
50092;SDS011;35974;47.752;10.290;2022-07-18T07:12:43;7.75;;;4.50;;
50092;SDS011;35974;47.752;10.290;2022-07-18T07:15:15;9.70;;;4.47;;
50092;SDS011;35974;47.752;10.290;2022-07-18T07:17:43;6.13;;;4.60;;
50092;SDS011;35974;47.752;10.290;2022-07-18T07:20:10;8.35;;;4.60;;
50092;SDS011;35974;47.752;10.290;2022-07-18T07:22:41;12.05;;;5.00;;
50092;SDS011;35974;47.752;10.290;2022-07-18T07:25:19;5.68;;;3.85;;
50092;SDS011;35974;47.752;10.290;2022-07-18T07:27:46;6.90;;;4.40;;
50092;SDS011;35974;47.752;10.290;2022-07-18T07:30:13;8.15;;;4.00;;
50092;SDS011;35974;47.752;10.290;2022-07-18T07:32:42;8.48;;;4.47;;
50092;SDS011;35974;47.752;10.290;2022-07-18T07:35:11;6.68;;;4.10;;
50092;SDS011;35974;47.752;10.290;2022-07-18T07:37:40;7.20;;;4.25;;
50092;SDS011;35974;47.752;10.290;2022-07-18T07:40:08;7.63;;;4.00;;
50092;SDS011;35974;47.752;10.290;2022-07-18T07:42:36;7.13;;;4.40;;
50092;SDS011;35974;47.752;10.290;2022-07-18T07:45:04;6.20;;;4.18;;
50092;SDS011;35974;47.752;10.290;2022-07-18T07:47:31;7.53;;;3.80;;
50092;SDS011;35974;47.752;10.290;2022-07-18T07:49:58;7.32;;;4.30;;
50092;SDS011;35974;47.752;10.290;2022-07-18T07:52:25;8.43;;;4.45;;
50092;SDS011;35974;47.752;10.290;2022-07-18T07:54:51;5.28;;;3.85;;
50092;SDS011;35974;47.752;10.290;2022-07-18T07:57:18;6.60;;;4.30;;
50092;SDS011;35974;47.752;10.290;2022-07-18T07:59:45;4.53;;;3.80;;
50092;SDS011;35974;47.752;10.290;2022-07-18T08:02:11;5.05;;;3.88;;
50092;SDS011;35974;47.752;10.290;2022-07-18T08:04:41;7.75;;;4.22;;
50092;SDS011;35974;47.752;10.290;2022-07-18T08:07:07;6.47;;;4.28;;
50092;SDS011;35974;47.752;10.290;2022-07-18T08:09:34;7.05;;;4.25;;
50092;SDS011;35974;47.752;10.290;2022-07-18T08:12:01;5.13;;;3.67;;
50092;SDS011;35974;47.752;10.290;2022-07-18T08:14:28;4.57;;;3.50;;
50092;SDS011;35974;47.752;10.290;2022-07-18T08:16:54;6.65;;;3.70;;
50092;SDS011;35974;47.752;10.290;2022-07-18T08:19:21;9.63;;;7.70;;
50092;SDS011;35974;47.752;10.290;2022-07-18T08:21:47;10.32;;;5.43;;
50092;SDS011;35974;47.752;10.290;2022-07-18T08:24:14;5.60;;;3.58;;
50092;SDS011;35974;47.752;10.290;2022-07-18T08:26:40;14.95;;;8.02;;
50092;SDS011;35974;47.752;10.290;2022-07-18T08:29:07;5.13;;;3.90;;
50092;SDS011;35974;47.752;10.290;2022-07-18T08:31:33;5.55;;;3.67;;
50092;SDS011;35974;47.752;10.290;2022-07-18T08:34:02;7.93;;;3.80;;
50092;SDS011;35974;47.752;10.290;2022-07-18T08:36:28;10.98;;;7.97;;
50092;SDS011;35974;47.752;10.290;2022-07-18T08:38:55;10.63;;;5.43;;
50092;SDS011;35974;47.752;10.290;2022-07-18T08:41:24;6.57;;;3.42;;
50092;SDS011;35974;47.752;10.290;2022-07-18T08:43:51;4.93;;;2.67;;
50092;SDS011;35974;47.752;10.290;2022-07-18T08:46:18;5.03;;;2.67;;
50092;SDS011;35974;47.752;10.290;2022-07-18T08:48:48;4.60;;;2.80;;
50092;SDS011;35974;47.752;10.290;2022-07-18T08:51:15;4.35;;;2.90;;
50092;SDS011;35974;47.752;10.290;2022-07-18T08:53:42;5.72;;;2.72;;
50092;SDS011;35974;47.752;10.290;2022-07-18T08:56:09;5.43;;;2.70;;
50092;SDS011;35974;47.752;10.290;2022-07-18T08:58:36;2.95;;;2.20;;
50092;SDS011;35974;47.752;10.290;2022-07-18T09:01:11;6.43;;;2.72;;
50092;SDS011;35974;47.752;10.290;2022-07-18T09:03:38;5.38;;;2.60;;
50092;SDS011;35974;47.752;10.290;2022-07-18T09:06:06;7.43;;;2.63;;
50092;SDS011;35974;47.752;10.290;2022-07-18T09:08:38;4.40;;;2.28;;
50092;SDS011;35974;47.752;10.290;2022-07-18T09:11:11;4.70;;;2.50;;
50092;SDS011;35974;47.752;10.290;2022-07-18T09:13:58;3.35;;;2.00;;
50092;SDS011;35974;47.752;10.290;2022-07-18T09:16:24;3.42;;;2.40;;
50092;SDS011;35974;47.752;10.290;2022-07-18T09:18:53;5.72;;;2.40;;
50092;SDS011;35974;47.752;10.290;2022-07-18T09:21:20;4.38;;;2.30;;
50092;SDS011;35974;47.752;10.290;2022-07-18T09:23:52;4.60;;;2.20;;
50092;SDS011;35974;47.752;10.290;2022-07-18T09:26:36;2.70;;;1.80;;
50092;SDS011;35974;47.752;10.290;2022-07-18T09:29:03;4.47;;;2.30;;
50092;SDS011;35974;47.752;10.290;2022-07-18T09:31:50;4.60;;;2.20;;
50092;SDS011;35974;47.752;10.290;2022-07-18T09:34:38;2.28;;;2.08;;
50092;SDS011;35974;47.752;10.290;2022-07-18T09:37:15;5.50;;;2.83;;
50092;SDS011;35974;47.752;10.290;2022-07-18T09:39:42;4.53;;;3.08;;
50092;SDS011;35974;47.752;10.290;2022-07-18T09:44:42;3.03;;;2.22;;
50092;SDS011;35974;47.752;10.290;2022-07-18T09:47:08;4.85;;;2.38;;
50092;SDS011;35974;47.752;10.290;2022-07-18T09:49:36;3.85;;;1.58;;
50092;SDS011;35974;47.752;10.290;2022-07-18T09:52:07;4.35;;;1.60;;
50092;SDS011;35974;47.752;10.290;2022-07-18T09:54:36;1.60;;;1.50;;
50092;SDS011;35974;47.752;10.290;2022-07-18T09:57:03;1.42;;;1.33;;
50092;SDS011;35974;47.752;10.290;2022-07-18T09:59:30;4.80;;;1.52;;
50092;SDS011;35974;47.752;10.290;2022-07-18T10:01:57;2.08;;;1.60;;
50092;SDS011;35974;47.752;10.290;2022-07-18T10:04:24;1.63;;;1.38;;
50092;SDS011;35974;47.752;10.290;2022-07-18T10:06:50;2.00;;;1.40;;
50092;SDS011;35974;47.752;10.290;2022-07-18T10:09:17;2.25;;;1.27;;
50092;SDS011;35974;47.752;10.290;2022-07-18T10:11:44;2.05;;;1.50;;
50092;SDS011;35974;47.752;10.290;2022-07-18T10:14:10;3.13;;;1.42;;
50092;SDS011;35974;47.752;10.290;2022-07-18T10:16:37;2.05;;;1.30;;
50092;SDS011;35974;47.752;10.290;2022-07-18T10:19:04;1.55;;;1.40;;
50092;SDS011;35974;47.752;10.290;2022-07-18T10:21:30;2.10;;;1.40;;
50092;SDS011;35974;47.752;10.290;2022-07-18T10:23:59;2.17;;;1.08;;
50092;SDS011;35974;47.752;10.290;2022-07-18T10:26:28;1.98;;;1.55;;
50092;SDS011;35974;47.752;10.290;2022-07-18T10:31:29;2.03;;;1.30;;
50092;SDS011;35974;47.752;10.290;2022-07-18T10:36:37;3.47;;;1.30;;
50092;SDS011;35974;47.752;10.290;2022-07-18T10:39:11;47.20;;;5.32;;
50092;SDS011;35974;47.752;10.290;2022-07-18T10:55:25;1.80;;;1.40;;
50092;SDS011;35974;47.752;10.290;2022-07-18T11:00:29;1.63;;;1.27;;
50092;SDS011;35974;47.752;10.290;2022-07-18T11:03:08;1.70;;;1.27;;
50092;SDS011;35974;47.752;10.290;2022-07-18T11:05:45;3.35;;;1.02;;
50092;SDS011;35974;47.752;10.290;2022-07-18T11:08:17;3.55;;;1.83;;
50092;SDS011;35974;47.752;10.290;2022-07-18T11:19:37;2.40;;;1.30;;
50092;SDS011;35974;47.752;10.290;2022-07-18T11:21:38;1.63;;;1.40;;
50092;SDS011;35974;47.752;10.290;2022-07-18T11:24:06;4.38;;;1.38;;
50092;SDS011;35974;47.752;10.290;2022-07-18T11:26:35;1.20;;;1.10;;
50092;SDS011;35974;47.752;10.290;2022-07-18T11:29:04;1.65;;;1.50;;
50092;SDS011;35974;47.752;10.290;2022-07-18T11:34:12;1.40;;;1.05;;
50092;SDS011;35974;47.752;10.290;2022-07-18T11:36:41;2.38;;;1.20;;
50092;SDS011;35974;47.752;10.290;2022-07-18T11:39:09;3.28;;;1.40;;
50092;SDS011;35974;47.752;10.290;2022-07-18T11:41:36;1.17;;;1.08;;
50092;SDS011;35974;47.752;10.290;2022-07-18T11:44:16;1.60;;;1.10;;
50092;SDS011;35974;47.752;10.290;2022-07-18T11:46:44;4.03;;;1.40;;
50092;SDS011;35974;47.752;10.290;2022-07-18T11:49:11;1.08;;;0.98;;
50092;SDS011;35974;47.752;10.290;2022-07-18T11:51:40;1.58;;;1.00;;
50092;SDS011;35974;47.752;10.290;2022-07-18T11:54:10;1.70;;;1.33;;
50092;SDS011;35974;47.752;10.290;2022-07-18T11:56:47;2.45;;;1.15;;
50092;SDS011;35974;47.752;10.290;2022-07-18T11:59:16;1.25;;;1.05;;
50092;SDS011;35974;47.752;10.290;2022-07-18T12:01:43;1.13;;;1.00;;
50092;SDS011;35974;47.752;10.290;2022-07-18T12:04:21;1.30;;;0.90;;
50092;SDS011;35974;47.752;10.290;2022-07-18T12:09:52;2.35;;;1.00;;
50092;SDS011;35974;47.752;10.290;2022-07-18T12:12:22;8.82;;;1.55;;
50092;SDS011;35974;47.752;10.290;2022-07-18T12:14:59;1.00;;;0.90;;
50092;SDS011;35974;47.752;10.290;2022-07-18T12:17:27;4.03;;;1.65;;
50092;SDS011;35974;47.752;10.290;2022-07-18T12:20:11;1.30;;;1.05;;
50092;SDS011;35974;47.752;10.290;2022-07-18T12:25:55;8.23;;;6.53;;
50092;SDS011;35974;47.752;10.290;2022-07-18T12:28:24;1.35;;;1.20;;
50092;SDS011;35974;47.752;10.290;2022-07-18T12:30:52;1.20;;;1.10;;
50092;SDS011;35974;47.752;10.290;2022-07-18T12:33:26;2.58;;;1.10;;
50092;SDS011;35974;47.752;10.290;2022-07-18T12:35:56;5.10;;;1.10;;
50092;SDS011;35974;47.752;10.290;2022-07-18T12:38:24;1.42;;;1.10;;
50092;SDS011;35974;47.752;10.290;2022-07-18T12:40:52;2.75;;;0.93;;
50092;SDS011;35974;47.752;10.290;2022-07-18T12:43:30;1.67;;;0.95;;
50092;SDS011;35974;47.752;10.290;2022-07-18T12:46:02;1.45;;;1.00;;
50092;SDS011;35974;47.752;10.290;2022-07-18T12:48:32;3.47;;;1.10;;
50092;SDS011;35974;47.752;10.290;2022-07-18T12:51:00;2.55;;;0.88;;
50092;SDS011;35974;47.752;10.290;2022-07-18T12:53:30;2.53;;;0.95;;
50092;SDS011;35974;47.752;10.290;2022-07-18T12:56:02;5.90;;;1.67;;
50092;SDS011;35974;47.752;10.290;2022-07-18T12:58:29;1.98;;;0.90;;
50092;SDS011;35974;47.752;10.290;2022-07-18T13:00:56;6.28;;;1.30;;
50092;SDS011;35974;47.752;10.290;2022-07-18T13:06:00;0.80;;;0.80;;
50092;SDS011;35974;47.752;10.290;2022-07-18T13:08:28;1.50;;;0.90;;
50092;SDS011;35974;47.752;10.290;2022-07-18T13:10:55;1.65;;;0.80;;
50092;SDS011;35974;47.752;10.290;2022-07-18T13:13:22;1.55;;;1.00;;
50092;SDS011;35974;47.752;10.290;2022-07-18T13:15:48;1.50;;;1.00;;
50092;SDS011;35974;47.752;10.290;2022-07-18T13:18:17;2.90;;;0.90;;
50092;SDS011;35974;47.752;10.290;2022-07-18T13:20:45;2.30;;;0.80;;
50092;SDS011;35974;47.752;10.290;2022-07-18T13:23:13;4.40;;;1.00;;
50092;SDS011;35974;47.752;10.290;2022-07-18T13:29:16;2.88;;;1.02;;
50092;SDS011;35974;47.752;10.290;2022-07-18T13:31:43;3.42;;;0.93;;
50092;SDS011;35974;47.752;10.290;2022-07-18T13:34:10;1.40;;;1.02;;
50092;SDS011;35974;47.752;10.290;2022-07-18T13:36:36;2.85;;;1.20;;
50092;SDS011;35974;47.752;10.290;2022-07-18T13:39:03;4.63;;;1.05;;
50092;SDS011;35974;47.752;10.290;2022-07-18T13:41:29;1.33;;;1.13;;
50092;SDS011;35974;47.752;10.290;2022-07-18T13:43:56;3.00;;;1.25;;
50092;SDS011;35974;47.752;10.290;2022-07-18T13:46:23;2.03;;;1.10;;
50092;SDS011;35974;47.752;10.290;2022-07-18T13:48:49;1.10;;;1.00;;
50092;SDS011;35974;47.752;10.290;2022-07-18T13:53:46;2.85;;;1.23;;
50092;SDS011;35974;47.752;10.290;2022-07-18T13:56:13;2.00;;;1.10;;
50092;SDS011;35974;47.752;10.290;2022-07-18T13:58:39;2.67;;;1.13;;
50092;SDS011;35974;47.752;10.290;2022-07-18T14:01:06;2.50;;;1.20;;
50092;SDS011;35974;47.752;10.290;2022-07-18T14:03:33;2.38;;;1.20;;
50092;SDS011;35974;47.752;10.290;2022-07-18T14:06:00;1.63;;;1.15;;
50092;SDS011;35974;47.752;10.290;2022-07-18T14:08:26;1.77;;;0.95;;
50092;SDS011;35974;47.752;10.290;2022-07-18T14:10:53;1.45;;;1.10;;
50092;SDS011;35974;47.752;10.290;2022-07-18T14:13:19;6.80;;;1.33;;
50092;SDS011;35974;47.752;10.290;2022-07-18T14:15:46;1.92;;;1.10;;
50092;SDS011;35974;47.752;10.290;2022-07-18T14:18:19;1.88;;;1.10;;
50092;SDS011;35974;47.752;10.290;2022-07-18T14:20:46;1.92;;;1.20;;
50092;SDS011;35974;47.752;10.290;2022-07-18T14:23:13;2.15;;;1.10;;
50092;SDS011;35974;47.752;10.290;2022-07-18T14:25:40;1.58;;;1.10;;
50092;SDS011;35974;47.752;10.290;2022-07-18T14:28:06;1.65;;;1.08;;
50092;SDS011;35974;47.752;10.290;2022-07-18T14:30:33;3.45;;;1.13;;
50092;SDS011;35974;47.752;10.290;2022-07-18T14:33:00;2.13;;;1.00;;
50092;SDS011;35974;47.752;10.290;2022-07-18T14:35:26;2.80;;;1.15;;
50092;SDS011;35974;47.752;10.290;2022-07-18T14:37:53;1.63;;;1.00;;
50092;SDS011;35974;47.752;10.290;2022-07-18T14:40:19;2.72;;;1.08;;
50092;SDS011;35974;47.752;10.290;2022-07-18T14:42:46;2.95;;;1.20;;
50092;SDS011;35974;47.752;10.290;2022-07-18T14:45:12;3.80;;;0.95;;
50092;SDS011;35974;47.752;10.290;2022-07-18T14:47:39;2.33;;;1.10;;
50092;SDS011;35974;47.752;10.290;2022-07-18T14:50:06;2.10;;;1.10;;
50092;SDS011;35974;47.752;10.290;2022-07-18T14:52:33;4.10;;;1.40;;
50092;SDS011;35974;47.752;10.290;2022-07-18T14:55:00;2.50;;;1.20;;
50092;SDS011;35974;47.752;10.290;2022-07-18T14:57:27;2.15;;;1.00;;
50092;SDS011;35974;47.752;10.290;2022-07-18T14:59:54;2.33;;;1.20;;
50092;SDS011;35974;47.752;10.290;2022-07-18T15:02:20;1.60;;;1.13;;
50092;SDS011;35974;47.752;10.290;2022-07-18T15:04:48;2.08;;;1.10;;
50092;SDS011;35974;47.752;10.290;2022-07-18T15:07:16;5.70;;;1.30;;
50092;SDS011;35974;47.752;10.290;2022-07-18T15:09:42;1.25;;;1.10;;
50092;SDS011;35974;47.752;10.290;2022-07-18T15:12:10;1.80;;;1.08;;
50092;SDS011;35974;47.752;10.290;2022-07-18T15:14:39;1.45;;;1.20;;
50092;SDS011;35974;47.752;10.290;2022-07-18T15:17:05;2.67;;;1.25;;
50092;SDS011;35974;47.752;10.290;2022-07-18T15:19:33;2.50;;;0.93;;
50092;SDS011;35974;47.752;10.290;2022-07-18T15:22:00;2.83;;;1.05;;
50092;SDS011;35974;47.752;10.290;2022-07-18T15:24:27;3.72;;;1.13;;
50092;SDS011;35974;47.752;10.290;2022-07-18T15:26:56;5.00;;;1.35;;
50092;SDS011;35974;47.752;10.290;2022-07-18T15:29:22;3.92;;;1.30;;